sensor_id;sensor_type;location;lat;lon;timestamp;temperature;humidity
67157;SHT31;54086;50.126;8.710;2022-12-29T00:02:12;10.79;82.68
67157;SHT31;54086;50.126;8.710;2022-12-29T00:04:38;10.83;82.61
67157;SHT31;54086;50.126;8.710;2022-12-29T00:07:03;10.79;82.83
67157;SHT31;54086;50.126;8.710;2022-12-29T00:09:29;10.77;82.88
67157;SHT31;54086;50.126;8.710;2022-12-29T00:11:55;10.80;82.89
67157;SHT31;54086;50.126;8.710;2022-12-29T00:14:20;10.81;82.88
67157;SHT31;54086;50.126;8.710;2022-12-29T00:17:04;10.76;83.12
67157;SHT31;54086;50.126;8.710;2022-12-29T00:19:30;10.79;83.30
67157;SHT31;54086;50.126;8.710;2022-12-29T00:22:14;10.72;84.24
67157;SHT31;54086;50.126;8.710;2022-12-29T00:24:59;10.60;85.56
67157;SHT31;54086;50.126;8.710;2022-12-29T00:27:34;10.49;86.62
67157;SHT31;54086;50.126;8.710;2022-12-29T00:30:21;10.34;87.61
67157;SHT31;54086;50.126;8.710;2022-12-29T00:36:03;10.28;87.69
67157;SHT31;54086;50.126;8.710;2022-12-29T00:38:31;10.31;87.39
67157;SHT31;54086;50.126;8.710;2022-12-29T00:41:23;10.34;87.27
67157;SHT31;54086;50.126;8.710;2022-12-29T00:44:08;10.38;86.67
67157;SHT31;54086;50.126;8.710;2022-12-29T00:46:40;10.38;86.66
67157;SHT31;54086;50.126;8.710;2022-12-29T00:49:07;10.42;86.46
67157;SHT31;54086;50.126;8.710;2022-12-29T00:51:53;10.39;86.35
67157;SHT31;54086;50.126;8.710;2022-12-29T00:54:20;10.41;86.64
67157;SHT31;54086;50.126;8.710;2022-12-29T00:56:50;10.35;87.11
67157;SHT31;54086;50.126;8.710;2022-12-29T00:59:15;10.29;87.70
67157;SHT31;54086;50.126;8.710;2022-12-29T01:01:41;10.24;88.08
67157;SHT31;54086;50.126;8.710;2022-12-29T01:04:07;10.21;88.50
67157;SHT31;54086;50.126;8.710;2022-12-29T01:06:34;10.18;88.89
67157;SHT31;54086;50.126;8.710;2022-12-29T01:09:00;10.24;89.06
67157;SHT31;54086;50.126;8.710;2022-12-29T01:11:44;10.27;89.28
67157;SHT31;54086;50.126;8.710;2022-12-29T01:14:09;10.34;89.26
67157;SHT31;54086;50.126;8.710;2022-12-29T01:16:35;10.29;89.50
67157;SHT31;54086;50.126;8.710;2022-12-29T01:19:02;10.35;89.61
67157;SHT31;54086;50.126;8.710;2022-12-29T01:21:27;10.39;89.61
67157;SHT31;54086;50.126;8.710;2022-12-29T01:23:52;10.44;89.72
67157;SHT31;54086;50.126;8.710;2022-12-29T01:26:18;10.46;89.77
67157;SHT31;54086;50.126;8.710;2022-12-29T01:28:44;10.45;89.73
67157;SHT31;54086;50.126;8.710;2022-12-29T01:31:11;10.48;89.61
67157;SHT31;54086;50.126;8.710;2022-12-29T01:33:37;10.55;89.47
67157;SHT31;54086;50.126;8.710;2022-12-29T01:36:08;10.58;89.42
67157;SHT31;54086;50.126;8.710;2022-12-29T01:38:35;10.55;89.54
67157;SHT31;54086;50.126;8.710;2022-12-29T01:41:01;10.55;89.64
67157;SHT31;54086;50.126;8.710;2022-12-29T01:43:46;10.56;89.69
67157;SHT31;54086;50.126;8.710;2022-12-29T01:49:15;10.58;89.71
67157;SHT31;54086;50.126;8.710;2022-12-29T01:51:57;10.55;89.84
67157;SHT31;54086;50.126;8.710;2022-12-29T01:54:40;10.60;89.72
67157;SHT31;54086;50.126;8.710;2022-12-29T01:57:11;10.62;89.54
67157;SHT31;54086;50.126;8.710;2022-12-29T01:59:43;10.59;89.63
67157;SHT31;54086;50.126;8.710;2022-12-29T02:02:11;10.58;89.73
67157;SHT31;54086;50.126;8.710;2022-12-29T02:04:40;10.62;89.68
67157;SHT31;54086;50.126;8.710;2022-12-29T02:07:13;10.68;89.46
67157;SHT31;54086;50.126;8.710;2022-12-29T02:09:39;10.69;89.56
67157;SHT31;54086;50.126;8.710;2022-12-29T02:12:07;10.68;89.53
67157;SHT31;54086;50.126;8.710;2022-12-29T02:14:32;10.75;89.37
67157;SHT31;54086;50.126;8.710;2022-12-29T02:19:47;10.77;89.30
67157;SHT31;54086;50.126;8.710;2022-12-29T02:31:44;10.79;89.24
67157;SHT31;54086;50.126;8.710;2022-12-29T02:34:24;10.83;89.00
67157;SHT31;54086;50.126;8.710;2022-12-29T02:37:29;10.84;88.94
67157;SHT31;54086;50.126;8.710;2022-12-29T02:42:58;10.89;88.74
67157;SHT31;54086;50.126;8.710;2022-12-29T02:45:32;10.80;89.01
67157;SHT31;54086;50.126;8.710;2022-12-29T02:48:22;10.89;88.63
67157;SHT31;54086;50.126;8.710;2022-12-29T02:51:03;10.80;88.66
67157;SHT31;54086;50.126;8.710;2022-12-29T02:53:30;10.81;88.64
67157;SHT31;54086;50.126;8.710;2022-12-29T02:56:15;10.81;88.78
67157;SHT31;54086;50.126;8.710;2022-12-29T02:58:40;10.81;88.77
67157;SHT31;54086;50.126;8.710;2022-12-29T03:01:20;10.86;88.60
67157;SHT31;54086;50.126;8.710;2022-12-29T03:04:29;10.95;88.30
67157;SHT31;54086;50.126;8.710;2022-12-29T03:07:05;10.95;88.30
67157;SHT31;54086;50.126;8.710;2022-12-29T03:09:56;10.96;88.31
67157;SHT31;54086;50.126;8.710;2022-12-29T03:12:30;11.00;88.03
67157;SHT31;54086;50.126;8.710;2022-12-29T03:15:21;11.03;87.98
67157;SHT31;54086;50.126;8.710;2022-12-29T03:18:14;11.01;88.01
67157;SHT31;54086;50.126;8.710;2022-12-29T03:21:08;11.03;87.94
67157;SHT31;54086;50.126;8.710;2022-12-29T03:23:36;11.04;87.84
67157;SHT31;54086;50.126;8.710;2022-12-29T03:26:07;11.06;87.74
67157;SHT31;54086;50.126;8.710;2022-12-29T03:28:41;11.03;87.74
67157;SHT31;54086;50.126;8.710;2022-12-29T03:31:08;11.11;87.55
67157;SHT31;54086;50.126;8.710;2022-12-29T03:33:36;11.14;87.36
67157;SHT31;54086;50.126;8.710;2022-12-29T03:36:08;11.16;87.28
67157;SHT31;54086;50.126;8.710;2022-12-29T03:38:59;11.16;87.22
67157;SHT31;54086;50.126;8.710;2022-12-29T03:41:30;11.18;87.19
67157;SHT31;54086;50.126;8.710;2022-12-29T03:43:56;11.16;87.17
67157;SHT31;54086;50.126;8.710;2022-12-29T03:46:22;11.14;87.17
67157;SHT31;54086;50.126;8.710;2022-12-29T03:48:47;11.13;87.31
67157;SHT31;54086;50.126;8.710;2022-12-29T03:51:13;11.20;87.01
67157;SHT31;54086;50.126;8.710;2022-12-29T03:53:38;11.30;86.68
67157;SHT31;54086;50.126;8.710;2022-12-29T03:56:04;11.30;86.58
67157;SHT31;54086;50.126;8.710;2022-12-29T03:58:30;11.28;86.57
67157;SHT31;54086;50.126;8.710;2022-12-29T04:00:56;11.38;86.20
67157;SHT31;54086;50.126;8.710;2022-12-29T04:03:21;11.35;86.01
67157;SHT31;54086;50.126;8.710;2022-12-29T04:05:47;11.38;85.95
67157;SHT31;54086;50.126;8.710;2022-12-29T04:08:12;11.38;85.96
67157;SHT31;54086;50.126;8.710;2022-12-29T04:10:37;11.45;85.60
67157;SHT31;54086;50.126;8.710;2022-12-29T04:13:03;11.45;85.51
67157;SHT31;54086;50.126;8.710;2022-12-29T04:15:28;11.51;85.00
67157;SHT31;54086;50.126;8.710;2022-12-29T04:17:53;11.47;85.17
67157;SHT31;54086;50.126;8.710;2022-12-29T04:20:19;11.54;84.59
67157;SHT31;54086;50.126;8.710;2022-12-29T04:23:06;11.57;84.46
67157;SHT31;54086;50.126;8.710;2022-12-29T04:25:33;11.55;84.43
67157;SHT31;54086;50.126;8.710;2022-12-29T04:27:58;11.59;84.16
67157;SHT31;54086;50.126;8.710;2022-12-29T04:30:25;11.62;83.83
67157;SHT31;54086;50.126;8.710;2022-12-29T04:32:51;11.59;83.93
67157;SHT31;54086;50.126;8.710;2022-12-29T04:35:16;11.67;83.58
67157;SHT31;54086;50.126;8.710;2022-12-29T04:37:41;11.74;82.97
67157;SHT31;54086;50.126;8.710;2022-12-29T04:40:07;11.77;82.74
67157;SHT31;54086;50.126;8.710;2022-12-29T04:42:36;11.77;82.84
67157;SHT31;54086;50.126;8.710;2022-12-29T04:45:04;11.77;82.61
67157;SHT31;54086;50.126;8.710;2022-12-29T04:47:30;11.81;82.38
67157;SHT31;54086;50.126;8.710;2022-12-29T04:49:55;11.85;82.09
67157;SHT31;54086;50.126;8.710;2022-12-29T04:52:21;11.93;81.71
67157;SHT31;54086;50.126;8.710;2022-12-29T04:54:49;12.00;81.20
67157;SHT31;54086;50.126;8.710;2022-12-29T04:57:16;12.00;81.37
67157;SHT31;54086;50.126;8.710;2022-12-29T04:59:44;12.06;80.99
67157;SHT31;54086;50.126;8.710;2022-12-29T05:02:09;12.00;81.32
67157;SHT31;54086;50.126;8.710;2022-12-29T05:04:35;12.02;81.13
67157;SHT31;54086;50.126;8.710;2022-12-29T05:07:00;12.02;81.11
67157;SHT31;54086;50.126;8.710;2022-12-29T05:09:28;12.05;81.29
67157;SHT31;54086;50.126;8.710;2022-12-29T05:11:55;11.99;81.63
67157;SHT31;54086;50.126;8.710;2022-12-29T05:14:23;11.95;82.26
67157;SHT31;54086;50.126;8.710;2022-12-29T05:16:48;11.90;82.47
67157;SHT31;54086;50.126;8.710;2022-12-29T05:19:14;11.88;82.79
67157;SHT31;54086;50.126;8.710;2022-12-29T05:21:39;11.86;82.96
67157;SHT31;54086;50.126;8.710;2022-12-29T05:24:05;11.82;83.14
67157;SHT31;54086;50.126;8.710;2022-12-29T05:26:33;11.83;83.18
67157;SHT31;54086;50.126;8.710;2022-12-29T05:28:58;11.83;83.18
67157;SHT31;54086;50.126;8.710;2022-12-29T05:31:25;11.86;83.09
67157;SHT31;54086;50.126;8.710;2022-12-29T05:33:50;11.77;83.76
67157;SHT31;54086;50.126;8.710;2022-12-29T05:36:16;11.74;84.11
67157;SHT31;54086;50.126;8.710;2022-12-29T05:38:41;11.77;83.88
67157;SHT31;54086;50.126;8.710;2022-12-29T05:41:06;11.69;84.05
67157;SHT31;54086;50.126;8.710;2022-12-29T05:43:32;11.72;83.79
67157;SHT31;54086;50.126;8.710;2022-12-29T05:45:57;11.81;83.65
67157;SHT31;54086;50.126;8.710;2022-12-29T05:48:22;11.77;83.50
67157;SHT31;54086;50.126;8.710;2022-12-29T05:50:51;11.88;82.77
67157;SHT31;54086;50.126;8.710;2022-12-29T05:53:17;11.92;82.64
67157;SHT31;54086;50.126;8.710;2022-12-29T05:55:43;11.93;82.53
67157;SHT31;54086;50.126;8.710;2022-12-29T05:58:09;11.96;81.91
67157;SHT31;54086;50.126;8.710;2022-12-29T06:00:34;11.96;82.13
67157;SHT31;54086;50.126;8.710;2022-12-29T06:03:00;12.05;81.42
67157;SHT31;54086;50.126;8.710;2022-12-29T06:05:25;12.08;81.49
67157;SHT31;54086;50.126;8.710;2022-12-29T06:07:51;12.05;81.44
67157;SHT31;54086;50.126;8.710;2022-12-29T06:10:17;12.10;81.11
67157;SHT31;54086;50.126;8.710;2022-12-29T06:12:42;12.20;80.63
67157;SHT31;54086;50.126;8.710;2022-12-29T06:15:08;12.19;80.69
67157;SHT31;54086;50.126;8.710;2022-12-29T06:17:33;12.22;80.55
67157;SHT31;54086;50.126;8.710;2022-12-29T06:19:59;12.27;80.29
67157;SHT31;54086;50.126;8.710;2022-12-29T06:22:24;12.25;80.31
67157;SHT31;54086;50.126;8.710;2022-12-29T06:24:49;12.26;80.35
67157;SHT31;54086;50.126;8.710;2022-12-29T06:27:15;12.27;80.18
67157;SHT31;54086;50.126;8.710;2022-12-29T06:29:40;12.25;80.30
67157;SHT31;54086;50.126;8.710;2022-12-29T06:32:07;12.33;80.05
67157;SHT31;54086;50.126;8.710;2022-12-29T06:34:32;12.32;80.10
67157;SHT31;54086;50.126;8.710;2022-12-29T06:36:58;12.30;80.08
67157;SHT31;54086;50.126;8.710;2022-12-29T06:39:23;12.27;80.28
67157;SHT31;54086;50.126;8.710;2022-12-29T06:41:52;12.26;80.36
67157;SHT31;54086;50.126;8.710;2022-12-29T06:44:17;12.30;80.19
67157;SHT31;54086;50.126;8.710;2022-12-29T06:46:42;12.32;80.16
67157;SHT31;54086;50.126;8.710;2022-12-29T06:49:08;12.26;80.34
67157;SHT31;54086;50.126;8.710;2022-12-29T06:51:33;12.27;80.34
67157;SHT31;54086;50.126;8.710;2022-12-29T06:53:58;12.32;80.26
67157;SHT31;54086;50.126;8.710;2022-12-29T06:56:24;12.20;80.83
67157;SHT31;54086;50.126;8.710;2022-12-29T06:58:49;12.19;80.78
67157;SHT31;54086;50.126;8.710;2022-12-29T07:01:14;12.13;81.21
67157;SHT31;54086;50.126;8.710;2022-12-29T07:03:41;12.12;81.46
67157;SHT31;54086;50.126;8.710;2022-12-29T07:06:07;12.15;81.19
67157;SHT31;54086;50.126;8.710;2022-12-29T07:08:33;12.10;81.36
67157;SHT31;54086;50.126;8.710;2022-12-29T07:10:58;12.08;81.43
67157;SHT31;54086;50.126;8.710;2022-12-29T07:13:23;12.03;81.42
67157;SHT31;54086;50.126;8.710;2022-12-29T07:15:49;12.06;81.30
67157;SHT31;54086;50.126;8.710;2022-12-29T07:18:14;12.06;81.37
67157;SHT31;54086;50.126;8.710;2022-12-29T07:20:39;12.00;81.57
67157;SHT31;54086;50.126;8.710;2022-12-29T07:23:05;12.05;81.23
67157;SHT31;54086;50.126;8.710;2022-12-29T07:25:30;12.10;80.82
67157;SHT31;54086;50.126;8.710;2022-12-29T07:27:56;12.10;80.73
67157;SHT31;54086;50.126;8.710;2022-12-29T07:30:21;12.10;80.93
67157;SHT31;54086;50.126;8.710;2022-12-29T07:32:46;12.17;80.36
67157;SHT31;54086;50.126;8.710;2022-12-29T07:35:12;12.19;80.17
67157;SHT31;54086;50.126;8.710;2022-12-29T07:37:37;12.19;80.18
67157;SHT31;54086;50.126;8.710;2022-12-29T07:40:03;12.17;80.22
67157;SHT31;54086;50.126;8.710;2022-12-29T07:42:29;12.19;80.14
67157;SHT31;54086;50.126;8.710;2022-12-29T07:44:55;12.20;80.01
67157;SHT31;54086;50.126;8.710;2022-12-29T07:47:20;12.27;79.70
67157;SHT31;54086;50.126;8.710;2022-12-29T07:49:46;12.37;79.35
67157;SHT31;54086;50.126;8.710;2022-12-29T07:52:11;12.34;79.39
67157;SHT31;54086;50.126;8.710;2022-12-29T07:54:36;12.36;79.42
67157;SHT31;54086;50.126;8.710;2022-12-29T07:57:03;12.33;79.52
67157;SHT31;54086;50.126;8.710;2022-12-29T07:59:28;12.33;79.47
67157;SHT31;54086;50.126;8.710;2022-12-29T08:01:55;12.34;79.38
67157;SHT31;54086;50.126;8.710;2022-12-29T08:04:21;12.32;79.72
67157;SHT31;54086;50.126;8.710;2022-12-29T08:06:46;12.32;79.74
67157;SHT31;54086;50.126;8.710;2022-12-29T08:09:12;12.30;79.97
67157;SHT31;54086;50.126;8.710;2022-12-29T08:11:38;12.33;80.03
67157;SHT31;54086;50.126;8.710;2022-12-29T08:14:03;12.32;80.17
67157;SHT31;54086;50.126;8.710;2022-12-29T08:16:29;12.26;80.57
67157;SHT31;54086;50.126;8.710;2022-12-29T08:18:55;12.29;80.48
67157;SHT31;54086;50.126;8.710;2022-12-29T08:21:20;12.27;80.58
67157;SHT31;54086;50.126;8.710;2022-12-29T08:23:47;12.22;80.85
67157;SHT31;54086;50.126;8.710;2022-12-29T08:26:12;12.23;80.83
67157;SHT31;54086;50.126;8.710;2022-12-29T08:28:37;12.17;81.01
67157;SHT31;54086;50.126;8.710;2022-12-29T08:31:03;12.17;81.33
67157;SHT31;54086;50.126;8.710;2022-12-29T08:33:29;12.15;81.52
67157;SHT31;54086;50.126;8.710;2022-12-29T08:36:02;12.13;81.66
67157;SHT31;54086;50.126;8.710;2022-12-29T08:38:29;12.10;82.29
67157;SHT31;54086;50.126;8.710;2022-12-29T08:40:55;12.08;82.08
67157;SHT31;54086;50.126;8.710;2022-12-29T08:43:20;12.10;81.94
67157;SHT31;54086;50.126;8.710;2022-12-29T08:45:46;12.12;81.83
67157;SHT31;54086;50.126;8.710;2022-12-29T08:48:11;12.08;81.80
67157;SHT31;54086;50.126;8.710;2022-12-29T08:50:36;12.12;81.71
67157;SHT31;54086;50.126;8.710;2022-12-29T08:53:02;12.12;82.03
67157;SHT31;54086;50.126;8.710;2022-12-29T08:55:27;12.10;82.10
67157;SHT31;54086;50.126;8.710;2022-12-29T08:57:52;12.15;82.10
67157;SHT31;54086;50.126;8.710;2022-12-29T09:00:18;12.12;82.72
67157;SHT31;54086;50.126;8.710;2022-12-29T09:02:44;12.00;83.54
67157;SHT31;54086;50.126;8.710;2022-12-29T09:05:09;11.93;84.45
67157;SHT31;54086;50.126;8.710;2022-12-29T09:07:35;11.86;84.54
67157;SHT31;54086;50.126;8.710;2022-12-29T09:10:00;11.77;85.29
67157;SHT31;54086;50.126;8.710;2022-12-29T09:12:26;11.62;86.70
67157;SHT31;54086;50.126;8.710;2022-12-29T09:14:51;11.55;87.21
67157;SHT31;54086;50.126;8.710;2022-12-29T09:17:16;11.47;87.51
67157;SHT31;54086;50.126;8.710;2022-12-29T09:20:00;11.42;88.34
67157;SHT31;54086;50.126;8.710;2022-12-29T09:22:26;11.51;88.57
67157;SHT31;54086;50.126;8.710;2022-12-29T09:24:51;11.51;88.02
67157;SHT31;54086;50.126;8.710;2022-12-29T09:27:17;11.54;87.80
67157;SHT31;54086;50.126;8.710;2022-12-29T09:29:42;11.51;87.87
67157;SHT31;54086;50.126;8.710;2022-12-29T09:32:11;11.55;87.68
67157;SHT31;54086;50.126;8.710;2022-12-29T09:34:36;11.52;88.09
67157;SHT31;54086;50.126;8.710;2022-12-29T09:37:02;11.44;88.33
67157;SHT31;54086;50.126;8.710;2022-12-29T09:39:27;11.37;88.77
67157;SHT31;54086;50.126;8.710;2022-12-29T09:42:02;11.32;89.50
67157;SHT31;54086;50.126;8.710;2022-12-29T09:45:10;11.32;89.86
67157;SHT31;54086;50.126;8.710;2022-12-29T09:47:38;11.17;90.75
67157;SHT31;54086;50.126;8.710;2022-12-29T09:52:49;10.90;92.10
67157;SHT31;54086;50.126;8.710;2022-12-29T09:55:19;10.79;92.40
67157;SHT31;54086;50.126;8.710;2022-12-29T09:57:52;10.72;92.51
67157;SHT31;54086;50.126;8.710;2022-12-29T10:00:22;10.68;92.68
67157;SHT31;54086;50.126;8.710;2022-12-29T10:03:17;10.68;92.86
67157;SHT31;54086;50.126;8.710;2022-12-29T10:06:10;10.69;92.72
67157;SHT31;54086;50.126;8.710;2022-12-29T10:20:00;10.84;90.53
67157;SHT31;54086;50.126;8.710;2022-12-29T10:25:16;10.77;89.92
67157;SHT31;54086;50.126;8.710;2022-12-29T10:27:43;10.72;90.14
67157;SHT31;54086;50.126;8.710;2022-12-29T10:30:12;10.68;89.77
67157;SHT31;54086;50.126;8.710;2022-12-29T10:32:45;10.70;89.70
67157;SHT31;54086;50.126;8.710;2022-12-29T10:35:25;10.69;88.63
67157;SHT31;54086;50.126;8.710;2022-12-29T10:41:15;10.75;88.23
67157;SHT31;54086;50.126;8.710;2022-12-29T10:43:45;10.72;87.98
67157;SHT31;54086;50.126;8.710;2022-12-29T10:46:33;10.84;87.34
67157;SHT31;54086;50.126;8.710;2022-12-29T10:49:00;10.86;87.06
67157;SHT31;54086;50.126;8.710;2022-12-29T10:51:36;10.90;87.41
67157;SHT31;54086;50.126;8.710;2022-12-29T10:54:10;10.90;87.41
67157;SHT31;54086;50.126;8.710;2022-12-29T10:56:40;10.93;87.24
67157;SHT31;54086;50.126;8.710;2022-12-29T11:06:57;11.11;86.83
67157;SHT31;54086;50.126;8.710;2022-12-29T11:09:28;11.10;86.89
67157;SHT31;54086;50.126;8.710;2022-12-29T11:11:55;11.20;86.43
67157;SHT31;54086;50.126;8.710;2022-12-29T11:14:31;11.30;86.52
67157;SHT31;54086;50.126;8.710;2022-12-29T11:17:01;11.48;85.97
67157;SHT31;54086;50.126;8.710;2022-12-29T11:19:32;11.55;85.11
67157;SHT31;54086;50.126;8.710;2022-12-29T11:22:27;11.65;84.64
67157;SHT31;54086;50.126;8.710;2022-12-29T11:24:53;11.67;84.59
67157;SHT31;54086;50.126;8.710;2022-12-29T11:27:22;11.64;84.30
67157;SHT31;54086;50.126;8.710;2022-12-29T11:29:48;11.65;84.32
67157;SHT31;54086;50.126;8.710;2022-12-29T11:32:22;11.78;83.97
67157;SHT31;54086;50.126;8.710;2022-12-29T11:34:48;11.98;83.00
67157;SHT31;54086;50.126;8.710;2022-12-29T11:37:38;12.05;82.75
67157;SHT31;54086;50.126;8.710;2022-12-29T11:40:17;12.09;82.69
67157;SHT31;54086;50.126;8.710;2022-12-29T11:42:57;12.09;82.78
67157;SHT31;54086;50.126;8.710;2022-12-29T11:45:25;12.13;83.28
67157;SHT31;54086;50.126;8.710;2022-12-29T11:48:01;12.15;83.11
67157;SHT31;54086;50.126;8.710;2022-12-29T11:50:33;12.16;83.27
67157;SHT31;54086;50.126;8.710;2022-12-29T11:53:21;12.19;82.89
67157;SHT31;54086;50.126;8.710;2022-12-29T11:56:01;12.23;82.57
67157;SHT31;54086;50.126;8.710;2022-12-29T11:58:34;12.19;82.27
67157;SHT31;54086;50.126;8.710;2022-12-29T12:01:28;12.22;82.36
67157;SHT31;54086;50.126;8.710;2022-12-29T12:04:14;12.34;81.84
67157;SHT31;54086;50.126;8.710;2022-12-29T12:06:48;12.34;81.09
67157;SHT31;54086;50.126;8.710;2022-12-29T12:09:43;12.38;80.36
67157;SHT31;54086;50.126;8.710;2022-12-29T12:12:20;12.36;80.25
67157;SHT31;54086;50.126;8.710;2022-12-29T12:14:53;12.46;80.55
67157;SHT31;54086;50.126;8.710;2022-12-29T12:17:40;12.58;80.33
67157;SHT31;54086;50.126;8.710;2022-12-29T12:25:55;12.68;79.36
67157;SHT31;54086;50.126;8.710;2022-12-29T12:28:31;12.63;79.49
67157;SHT31;54086;50.126;8.710;2022-12-29T12:31:01;12.61;79.25
67157;SHT31;54086;50.126;8.710;2022-12-29T12:33:41;12.53;79.37
67157;SHT31;54086;50.126;8.710;2022-12-29T12:36:33;12.51;79.33
67157;SHT31;54086;50.126;8.710;2022-12-29T12:39:19;12.47;79.35
67157;SHT31;54086;50.126;8.710;2022-12-29T12:42:06;12.47;79.70
67157;SHT31;54086;50.126;8.710;2022-12-29T12:54:18;12.33;81.63
67157;SHT31;54086;50.126;8.710;2022-12-29T13:02:06;12.08;83.11
67157;SHT31;54086;50.126;8.710;2022-12-29T13:10:29;12.10;83.41
67157;SHT31;54086;50.126;8.710;2022-12-29T13:13:48;12.10;83.40
67157;SHT31;54086;50.126;8.710;2022-12-29T13:18:35;12.12;83.64
67157;SHT31;54086;50.126;8.710;2022-12-29T13:24:24;12.23;82.57
67157;SHT31;54086;50.126;8.710;2022-12-29T13:27:20;12.34;81.99
67157;SHT31;54086;50.126;8.710;2022-12-29T13:30:14;12.29;81.56
67157;SHT31;54086;50.126;8.710;2022-12-29T13:38:24;12.44;80.57
67157;SHT31;54086;50.126;8.710;2022-12-29T13:40:55;12.37;80.07
67157;SHT31;54086;50.126;8.710;2022-12-29T13:43:22;12.34;80.15
67157;SHT31;54086;50.126;8.710;2022-12-29T13:45:58;12.37;80.44
67157;SHT31;54086;50.126;8.710;2022-12-29T13:48:37;12.34;80.18
67157;SHT31;54086;50.126;8.710;2022-12-29T13:51:05;12.33;79.59
67157;SHT31;54086;50.126;8.710;2022-12-29T13:56:14;12.37;78.96
67157;SHT31;54086;50.126;8.710;2022-12-29T13:58:53;12.37;78.90
67157;SHT31;54086;50.126;8.710;2022-12-29T14:01:29;12.34;78.57
67157;SHT31;54086;50.126;8.710;2022-12-29T14:03:58;12.40;78.28
67157;SHT31;54086;50.126;8.710;2022-12-29T14:06:32;12.38;78.48
67157;SHT31;54086;50.126;8.710;2022-12-29T14:09:05;12.41;78.41
67157;SHT31;54086;50.126;8.710;2022-12-29T14:11:33;12.40;78.59
67157;SHT31;54086;50.126;8.710;2022-12-29T14:14:10;12.32;78.81
67157;SHT31;54086;50.126;8.710;2022-12-29T14:16:37;12.34;79.19
67157;SHT31;54086;50.126;8.710;2022-12-29T14:19:21;12.27;79.22
67157;SHT31;54086;50.126;8.710;2022-12-29T14:21:53;12.22;79.42
67157;SHT31;54086;50.126;8.710;2022-12-29T14:34:54;12.08;79.76
67157;SHT31;54086;50.126;8.710;2022-12-29T14:37:35;12.06;79.59
67157;SHT31;54086;50.126;8.710;2022-12-29T14:40:17;12.03;79.79
67157;SHT31;54086;50.126;8.710;2022-12-29T14:42:44;12.03;79.60
67157;SHT31;54086;50.126;8.710;2022-12-29T14:47:39;11.98;79.48
67157;SHT31;54086;50.126;8.710;2022-12-29T14:50:25;11.99;79.22
67157;SHT31;54086;50.126;8.710;2022-12-29T14:52:57;11.99;79.31
67157;SHT31;54086;50.126;8.710;2022-12-29T14:55:45;11.99;78.55
67157;SHT31;54086;50.126;8.710;2022-12-29T15:01:39;11.96;78.53
67157;SHT31;54086;50.126;8.710;2022-12-29T15:04:15;11.95;78.50
67157;SHT31;54086;50.126;8.710;2022-12-29T15:06:42;11.92;78.25
67157;SHT31;54086;50.126;8.710;2022-12-29T15:09:31;11.86;78.17
67157;SHT31;54086;50.126;8.710;2022-12-29T15:12:06;11.79;78.16
67157;SHT31;54086;50.126;8.710;2022-12-29T15:14:39;11.74;78.32
67157;SHT31;54086;50.126;8.710;2022-12-29T15:17:27;11.69;78.38
67157;SHT31;54086;50.126;8.710;2022-12-29T15:19:55;11.65;78.66
67157;SHT31;54086;50.126;8.710;2022-12-29T15:22:21;11.65;78.20
67157;SHT31;54086;50.126;8.710;2022-12-29T15:24:46;11.64;78.17
67157;SHT31;54086;50.126;8.710;2022-12-29T15:27:19;11.58;78.30
67157;SHT31;54086;50.126;8.710;2022-12-29T15:29:46;11.54;77.97
67157;SHT31;54086;50.126;8.710;2022-12-29T15:34:40;11.44;78.25
67157;SHT31;54086;50.126;8.710;2022-12-29T15:37:07;11.37;78.31
67157;SHT31;54086;50.126;8.710;2022-12-29T15:39:33;11.37;78.25
67157;SHT31;54086;50.126;8.710;2022-12-29T15:42:12;11.34;78.10
67157;SHT31;54086;50.126;8.710;2022-12-29T15:44:43;11.31;78.13
67157;SHT31;54086;50.126;8.710;2022-12-29T15:47:24;11.32;78.02
67157;SHT31;54086;50.126;8.710;2022-12-29T15:49:53;11.27;77.71
67157;SHT31;54086;50.126;8.710;2022-12-29T15:52:20;11.27;77.70
67157;SHT31;54086;50.126;8.710;2022-12-29T15:54:49;11.26;77.85
67157;SHT31;54086;50.126;8.710;2022-12-29T15:57:26;11.26;77.43
67157;SHT31;54086;50.126;8.710;2022-12-29T15:59:52;11.26;77.22
67157;SHT31;54086;50.126;8.710;2022-12-29T16:02:21;11.26;77.23
67157;SHT31;54086;50.126;8.710;2022-12-29T16:04:47;11.26;76.98
67157;SHT31;54086;50.126;8.710;2022-12-29T16:07:29;11.23;77.24
67157;SHT31;54086;50.126;8.710;2022-12-29T16:10:00;11.23;77.47
67157;SHT31;54086;50.126;8.710;2022-12-29T16:12:35;11.14;77.69
67157;SHT31;54086;50.126;8.710;2022-12-29T16:15:07;11.13;77.91
67157;SHT31;54086;50.126;8.710;2022-12-29T16:17:46;11.11;78.19
67157;SHT31;54086;50.126;8.710;2022-12-29T16:22:46;11.04;78.77
67157;SHT31;54086;50.126;8.710;2022-12-29T16:25:19;11.09;78.81
67157;SHT31;54086;50.126;8.710;2022-12-29T16:27:46;11.03;79.03
67157;SHT31;54086;50.126;8.710;2022-12-29T16:30:30;11.00;79.23
67157;SHT31;54086;50.126;8.710;2022-12-29T16:32:59;10.95;79.41
67157;SHT31;54086;50.126;8.710;2022-12-29T16:35:28;10.97;79.08
67157;SHT31;54086;50.126;8.710;2022-12-29T16:40:58;10.95;78.95
67157;SHT31;54086;50.126;8.710;2022-12-29T16:43:36;10.92;79.06
67157;SHT31;54086;50.126;8.710;2022-12-29T16:46:26;10.87;79.20
67157;SHT31;54086;50.126;8.710;2022-12-29T16:48:54;10.86;79.17
67157;SHT31;54086;50.126;8.710;2022-12-29T16:51:31;10.81;79.40
67157;SHT31;54086;50.126;8.710;2022-12-29T16:53:58;10.79;79.64
67157;SHT31;54086;50.126;8.710;2022-12-29T16:56:27;10.69;80.28
67157;SHT31;54086;50.126;8.710;2022-12-29T16:59:01;10.60;80.96
67157;SHT31;54086;50.126;8.710;2022-12-29T17:01:27;10.56;81.50
67157;SHT31;54086;50.126;8.710;2022-12-29T17:03:56;10.45;82.00
67157;SHT31;54086;50.126;8.710;2022-12-29T17:06:26;10.38;82.23
67157;SHT31;54086;50.126;8.710;2022-12-29T17:08:52;10.37;82.53
67157;SHT31;54086;50.126;8.710;2022-12-29T17:11:27;10.31;82.93
67157;SHT31;54086;50.126;8.710;2022-12-29T17:16:46;10.14;83.71
67157;SHT31;54086;50.126;8.710;2022-12-29T17:19:19;10.10;84.08
67157;SHT31;54086;50.126;8.710;2022-12-29T17:21:46;10.04;84.29
67157;SHT31;54086;50.126;8.710;2022-12-29T17:24:16;10.04;84.54
67157;SHT31;54086;50.126;8.710;2022-12-29T17:26:44;9.97;84.69
67157;SHT31;54086;50.126;8.710;2022-12-29T17:29:18;9.91;84.75
67157;SHT31;54086;50.126;8.710;2022-12-29T17:31:45;9.88;84.87
67157;SHT31;54086;50.126;8.710;2022-12-29T17:34:12;9.84;85.08
67157;SHT31;54086;50.126;8.710;2022-12-29T17:36:38;9.83;85.02
67157;SHT31;54086;50.126;8.710;2022-12-29T17:39:04;9.84;84.88
67157;SHT31;54086;50.126;8.710;2022-12-29T17:41:30;9.84;84.51
67157;SHT31;54086;50.126;8.710;2022-12-29T17:43:57;9.86;84.01
67157;SHT31;54086;50.126;8.710;2022-12-29T17:46:23;9.90;83.72
67157;SHT31;54086;50.126;8.710;2022-12-29T17:48:48;9.91;83.63
67157;SHT31;54086;50.126;8.710;2022-12-29T17:51:14;9.90;83.61
67157;SHT31;54086;50.126;8.710;2022-12-29T17:53:39;9.90;83.37